sensor_id;sensor_type;location;lat;lon;timestamp;P1;durP1;ratioP1;P2;durP2;ratioP2
55053;SDS011;40954;45.668;18.980;2022-09-17T00:01:47;8.55;;;6.22;;
55053;SDS011;40954;45.668;18.980;2022-09-17T00:04:13;8.00;;;5.45;;
55053;SDS011;40954;45.668;18.980;2022-09-17T00:06:39;6.35;;;5.72;;
55053;SDS011;40954;45.668;18.980;2022-09-17T00:09:06;20.70;;;8.48;;
55053;SDS011;40954;45.668;18.980;2022-09-17T00:11:33;12.48;;;6.60;;
55053;SDS011;40954;45.668;18.980;2022-09-17T00:14:00;8.45;;;7.45;;
55053;SDS011;40954;45.668;18.980;2022-09-17T00:16:31;15.48;;;7.55;;
55053;SDS011;40954;45.668;18.980;2022-09-17T00:18:57;14.85;;;7.25;;
55053;SDS011;40954;45.668;18.980;2022-09-17T00:21:24;14.98;;;7.82;;
55053;SDS011;40954;45.668;18.980;2022-09-17T00:23:57;14.75;;;6.80;;
55053;SDS011;40954;45.668;18.980;2022-09-17T00:26:24;16.40;;;6.95;;
55053;SDS011;40954;45.668;18.980;2022-09-17T00:28:51;10.82;;;6.40;;
55053;SDS011;40954;45.668;18.980;2022-09-17T00:31:17;8.93;;;5.60;;
55053;SDS011;40954;45.668;18.980;2022-09-17T00:33:43;8.00;;;6.18;;
55053;SDS011;40954;45.668;18.980;2022-09-17T00:36:09;9.18;;;5.72;;
55053;SDS011;40954;45.668;18.980;2022-09-17T00:38:35;6.85;;;5.93;;
55053;SDS011;40954;45.668;18.980;2022-09-17T00:41:02;6.22;;;5.63;;
55053;SDS011;40954;45.668;18.980;2022-09-17T00:43:42;8.07;;;5.10;;
55053;SDS011;40954;45.668;18.980;2022-09-17T00:46:32;6.22;;;5.60;;
55053;SDS011;40954;45.668;18.980;2022-09-17T00:48:56;6.50;;;4.95;;
55053;SDS011;40954;45.668;18.980;2022-09-17T00:51:27;5.88;;;5.28;;
55053;SDS011;40954;45.668;18.980;2022-09-17T00:53:55;8.73;;;4.72;;
55053;SDS011;40954;45.668;18.980;2022-09-17T00:56:23;5.45;;;4.95;;
55053;SDS011;40954;45.668;18.980;2022-09-17T00:58:50;6.57;;;4.65;;
55053;SDS011;40954;45.668;18.980;2022-09-17T01:01:17;6.80;;;4.65;;
55053;SDS011;40954;45.668;18.980;2022-09-17T01:03:43;4.75;;;4.13;;
55053;SDS011;40954;45.668;18.980;2022-09-17T01:06:15;5.15;;;4.32;;
55053;SDS011;40954;45.668;18.980;2022-09-17T01:14:18;9.18;;;4.63;;
55053;SDS011;40954;45.668;18.980;2022-09-17T01:16:56;6.60;;;5.28;;
55053;SDS011;40954;45.668;18.980;2022-09-17T01:19:46;5.38;;;4.75;;
55053;SDS011;40954;45.668;18.980;2022-09-17T01:24:47;7.13;;;4.85;;
55053;SDS011;40954;45.668;18.980;2022-09-17T01:30:32;4.30;;;3.90;;
55053;SDS011;40954;45.668;18.980;2022-09-17T01:32:54;5.50;;;4.20;;
55053;SDS011;40954;45.668;18.980;2022-09-17T01:37:58;5.00;;;4.32;;
55053;SDS011;40954;45.668;18.980;2022-09-17T01:40:32;6.78;;;5.60;;
55053;SDS011;40954;45.668;18.980;2022-09-17T01:43:06;7.40;;;4.82;;
55053;SDS011;40954;45.668;18.980;2022-09-17T01:45:41;4.32;;;3.92;;
55053;SDS011;40954;45.668;18.980;2022-09-17T01:48:09;4.13;;;3.72;;
55053;SDS011;40954;45.668;18.980;2022-09-17T01:53:23;7.40;;;4.78;;
55053;SDS011;40954;45.668;18.980;2022-09-17T01:55:52;5.30;;;4.85;;
55053;SDS011;40954;45.668;18.980;2022-09-17T01:58:21;3.88;;;3.47;;
55053;SDS011;40954;45.668;18.980;2022-09-17T02:00:50;6.57;;;4.93;;
55053;SDS011;40954;45.668;18.980;2022-09-17T02:06:11;6.93;;;4.95;;
55053;SDS011;40954;45.668;18.980;2022-09-17T02:08:42;5.18;;;4.68;;
55053;SDS011;40954;45.668;18.980;2022-09-17T02:11:11;5.63;;;4.40;;
55053;SDS011;40954;45.668;18.980;2022-09-17T02:26:44;8.50;;;6.82;;
55053;SDS011;40954;45.668;18.980;2022-09-17T02:29:14;6.68;;;5.72;;
55053;SDS011;40954;45.668;18.980;2022-09-17T02:31:43;8.82;;;5.80;;
55053;SDS011;40954;45.668;18.980;2022-09-17T02:34:09;8.75;;;4.93;;
55053;SDS011;40954;45.668;18.980;2022-09-17T02:36:35;9.15;;;6.00;;
55053;SDS011;40954;45.668;18.980;2022-09-17T02:39:02;9.63;;;5.10;;
55053;SDS011;40954;45.668;18.980;2022-09-17T02:41:33;6.55;;;5.78;;
55053;SDS011;40954;45.668;18.980;2022-09-17T02:54:41;8.37;;;7.13;;
55053;SDS011;40954;45.668;18.980;2022-09-17T02:57:14;8.02;;;5.93;;
55053;SDS011;40954;45.668;18.980;2022-09-17T03:04:41;16.23;;;6.60;;
55053;SDS011;40954;45.668;18.980;2022-09-17T03:07:08;9.48;;;6.40;;
55053;SDS011;40954;45.668;18.980;2022-09-17T03:09:36;8.65;;;6.10;;
55053;SDS011;40954;45.668;18.980;2022-09-17T03:12:02;7.43;;;6.35;;
55053;SDS011;40954;45.668;18.980;2022-09-17T03:14:29;5.05;;;4.55;;
55053;SDS011;40954;45.668;18.980;2022-09-17T03:16:55;6.05;;;5.45;;
55053;SDS011;40954;45.668;18.980;2022-09-17T03:19:21;6.45;;;5.85;;
55053;SDS011;40954;45.668;18.980;2022-09-17T03:21:47;6.70;;;5.80;;
55053;SDS011;40954;45.668;18.980;2022-09-17T03:24:13;5.35;;;4.85;;
55053;SDS011;40954;45.668;18.980;2022-09-17T03:26:40;5.30;;;4.57;;
55053;SDS011;40954;45.668;18.980;2022-09-17T03:29:06;5.85;;;5.20;;
55053;SDS011;40954;45.668;18.980;2022-09-17T03:31:32;4.40;;;4.00;;
55053;SDS011;40954;45.668;18.980;2022-09-17T03:33:58;4.72;;;4.15;;
55053;SDS011;40954;45.668;18.980;2022-09-17T03:36:24;4.88;;;4.38;;
55053;SDS011;40954;45.668;18.980;2022-09-17T03:38:56;5.40;;;3.92;;
55053;SDS011;40954;45.668;18.980;2022-09-17T03:41:23;5.32;;;4.05;;
55053;SDS011;40954;45.668;18.980;2022-09-17T03:43:49;6.57;;;4.03;;
55053;SDS011;40954;45.668;18.980;2022-09-17T03:46:15;6.63;;;3.58;;
55053;SDS011;40954;45.668;18.980;2022-09-17T03:48:42;4.18;;;3.83;;
55053;SDS011;40954;45.668;18.980;2022-09-17T03:51:08;4.78;;;3.20;;
55053;SDS011;40954;45.668;18.980;2022-09-17T03:53:34;6.90;;;4.63;;
55053;SDS011;40954;45.668;18.980;2022-09-17T03:56:01;2.95;;;2.70;;
55053;SDS011;40954;45.668;18.980;2022-09-17T03:58:27;5.78;;;3.70;;
55053;SDS011;40954;45.668;18.980;2022-09-17T04:00:54;5.30;;;3.20;;
55053;SDS011;40954;45.668;18.980;2022-09-17T04:03:25;2.92;;;2.72;;
55053;SDS011;40954;45.668;18.980;2022-09-17T04:05:52;4.00;;;3.60;;
55053;SDS011;40954;45.668;18.980;2022-09-17T04:08:18;4.13;;;3.10;;
55053;SDS011;40954;45.668;18.980;2022-09-17T04:10:44;5.03;;;3.75;;
55053;SDS011;40954;45.668;18.980;2022-09-17T04:13:11;4.80;;;3.95;;
55053;SDS011;40954;45.668;18.980;2022-09-17T04:15:37;4.72;;;4.20;;
55053;SDS011;40954;45.668;18.980;2022-09-17T04:18:04;5.53;;;3.95;;
55053;SDS011;40954;45.668;18.980;2022-09-17T04:20:30;5.57;;;4.63;;
55053;SDS011;40954;45.668;18.980;2022-09-17T04:22:56;4.30;;;4.00;;
55053;SDS011;40954;45.668;18.980;2022-09-17T04:25:22;4.38;;;3.97;;
55053;SDS011;40954;45.668;18.980;2022-09-17T04:27:48;4.25;;;3.85;;
55053;SDS011;40954;45.668;18.980;2022-09-17T04:30:15;4.78;;;4.30;;
55053;SDS011;40954;45.668;18.980;2022-09-17T04:32:44;5.80;;;5.13;;
55053;SDS011;40954;45.668;18.980;2022-09-17T04:35:10;5.15;;;4.65;;
55053;SDS011;40954;45.668;18.980;2022-09-17T04:37:37;5.47;;;4.65;;
55053;SDS011;40954;45.668;18.980;2022-09-17T04:40:03;6.32;;;5.43;;
55053;SDS011;40954;45.668;18.980;2022-09-17T04:42:30;8.20;;;5.50;;
55053;SDS011;40954;45.668;18.980;2022-09-17T04:44:56;6.20;;;5.65;;
55053;SDS011;40954;45.668;18.980;2022-09-17T04:47:22;4.63;;;3.90;;
55053;SDS011;40954;45.668;18.980;2022-09-17T04:49:48;5.47;;;4.90;;
55053;SDS011;40954;45.668;18.980;2022-09-17T04:52:14;7.35;;;5.63;;
55053;SDS011;40954;45.668;18.980;2022-09-17T04:54:40;7.57;;;5.47;;
55053;SDS011;40954;45.668;18.980;2022-09-17T04:57:06;10.05;;;7.85;;
55053;SDS011;40954;45.668;18.980;2022-09-17T04:59:32;5.57;;;5.07;;
55053;SDS011;40954;45.668;18.980;2022-09-17T05:01:58;7.30;;;6.47;;
55053;SDS011;40954;45.668;18.980;2022-09-17T05:04:24;7.15;;;6.45;;
55053;SDS011;40954;45.668;18.980;2022-09-17T05:06:51;7.85;;;6.05;;
55053;SDS011;40954;45.668;18.980;2022-09-17T05:09:17;6.47;;;5.80;;
55053;SDS011;40954;45.668;18.980;2022-09-17T05:11:43;8.30;;;5.65;;
55053;SDS011;40954;45.668;18.980;2022-09-17T05:14:09;5.35;;;4.60;;
55053;SDS011;40954;45.668;18.980;2022-09-17T05:16:35;5.80;;;4.97;;
55053;SDS011;40954;45.668;18.980;2022-09-17T05:19:01;7.30;;;6.25;;
55053;SDS011;40954;45.668;18.980;2022-09-17T05:21:28;6.90;;;4.80;;
55053;SDS011;40954;45.668;18.980;2022-09-17T05:23:54;5.03;;;4.57;;
55053;SDS011;40954;45.668;18.980;2022-09-17T05:26:20;5.80;;;4.95;;
55053;SDS011;40954;45.668;18.980;2022-09-17T05:28:46;6.95;;;5.05;;
55053;SDS011;40954;45.668;18.980;2022-09-17T05:31:12;6.80;;;4.93;;
55053;SDS011;40954;45.668;18.980;2022-09-17T05:33:38;6.50;;;5.20;;
55053;SDS011;40954;45.668;18.980;2022-09-17T05:36:04;6.32;;;5.22;;
55053;SDS011;40954;45.668;18.980;2022-09-17T05:38:31;7.65;;;5.30;;
55053;SDS011;40954;45.668;18.980;2022-09-17T05:40:57;6.57;;;5.00;;
55053;SDS011;40954;45.668;18.980;2022-09-17T05:43:23;8.23;;;5.65;;
55053;SDS011;40954;45.668;18.980;2022-09-17T05:45:49;5.93;;;5.10;;
55053;SDS011;40954;45.668;18.980;2022-09-17T05:48:17;5.38;;;4.88;;
55053;SDS011;40954;45.668;18.980;2022-09-17T05:50:43;5.35;;;4.35;;
55053;SDS011;40954;45.668;18.980;2022-09-17T05:53:10;5.70;;;4.38;;
55053;SDS011;40954;45.668;18.980;2022-09-17T05:55:36;6.25;;;4.10;;
55053;SDS011;40954;45.668;18.980;2022-09-17T05:58:12;6.57;;;4.50;;
55053;SDS011;40954;45.668;18.980;2022-09-17T06:00:39;6.78;;;5.82;;
55053;SDS011;40954;45.668;18.980;2022-09-17T06:03:06;5.00;;;3.95;;
55053;SDS011;40954;45.668;18.980;2022-09-17T06:05:32;5.32;;;4.07;;
55053;SDS011;40954;45.668;18.980;2022-09-17T06:07:58;5.60;;;4.05;;
55053;SDS011;40954;45.668;18.980;2022-09-17T06:10:25;4.43;;;3.70;;
55053;SDS011;40954;45.668;18.980;2022-09-17T06:12:54;5.03;;;4.30;;
55053;SDS011;40954;45.668;18.980;2022-09-17T06:15:20;6.70;;;4.55;;
55053;SDS011;40954;45.668;18.980;2022-09-17T06:17:46;5.15;;;4.65;;
55053;SDS011;40954;45.668;18.980;2022-09-17T06:20:12;5.03;;;4.53;;
55053;SDS011;40954;45.668;18.980;2022-09-17T06:22:40;6.78;;;6.10;;
55053;SDS011;40954;45.668;18.980;2022-09-17T06:25:06;5.70;;;4.95;;
55053;SDS011;40954;45.668;18.980;2022-09-17T06:27:33;5.60;;;4.07;;
55053;SDS011;40954;45.668;18.980;2022-09-17T06:29:59;5.32;;;4.93;;
55053;SDS011;40954;45.668;18.980;2022-09-17T06:32:26;6.82;;;5.03;;
55053;SDS011;40954;45.668;18.980;2022-09-17T06:34:52;5.53;;;3.75;;
55053;SDS011;40954;45.668;18.980;2022-09-17T06:37:20;6.82;;;4.00;;
55053;SDS011;40954;45.668;18.980;2022-09-17T06:39:46;3.75;;;3.45;;
55053;SDS011;40954;45.668;18.980;2022-09-17T06:42:12;5.50;;;3.35;;
55053;SDS011;40954;45.668;18.980;2022-09-17T06:44:38;8.88;;;4.15;;
55053;SDS011;40954;45.668;18.980;2022-09-17T06:47:04;4.78;;;3.70;;
55053;SDS011;40954;45.668;18.980;2022-09-17T06:49:31;8.75;;;3.70;;
55053;SDS011;40954;45.668;18.980;2022-09-17T06:51:58;4.53;;;3.45;;
55053;SDS011;40954;45.668;18.980;2022-09-17T06:54:24;5.05;;;3.58;;
55053;SDS011;40954;45.668;18.980;2022-09-17T06:56:50;7.30;;;4.10;;
55053;SDS011;40954;45.668;18.980;2022-09-17T06:59:16;4.50;;;4.10;;
55053;SDS011;40954;45.668;18.980;2022-09-17T07:01:42;5.63;;;3.75;;
55053;SDS011;40954;45.668;18.980;2022-09-17T07:04:08;5.80;;;4.68;;
55053;SDS011;40954;45.668;18.980;2022-09-17T07:06:34;6.60;;;4.53;;
55053;SDS011;40954;45.668;18.980;2022-09-17T07:09:01;4.15;;;3.72;;
55053;SDS011;40954;45.668;18.980;2022-09-17T07:11:28;8.25;;;4.03;;
55053;SDS011;40954;45.668;18.980;2022-09-17T07:13:55;7.45;;;3.83;;
55053;SDS011;40954;45.668;18.980;2022-09-17T07:16:21;5.25;;;3.80;;
55053;SDS011;40954;45.668;18.980;2022-09-17T07:18:48;5.70;;;3.38;;
55053;SDS011;40954;45.668;18.980;2022-09-17T07:21:14;6.32;;;3.90;;
55053;SDS011;40954;45.668;18.980;2022-09-17T07:23:40;4.18;;;3.78;;
55053;SDS011;40954;45.668;18.980;2022-09-17T07:26:07;3.75;;;3.22;;
55053;SDS011;40954;45.668;18.980;2022-09-17T07:28:37;3.72;;;3.42;;
55053;SDS011;40954;45.668;18.980;2022-09-17T07:31:03;4.65;;;4.13;;
55053;SDS011;40954;45.668;18.980;2022-09-17T07:33:30;5.53;;;3.78;;
55053;SDS011;40954;45.668;18.980;2022-09-17T07:36:01;6.15;;;3.80;;
55053;SDS011;40954;45.668;18.980;2022-09-17T07:38:28;5.60;;;4.32;;
55053;SDS011;40954;45.668;18.980;2022-09-17T07:40:58;4.50;;;3.97;;
55053;SDS011;40954;45.668;18.980;2022-09-17T07:43:28;5.30;;;3.92;;
55053;SDS011;40954;45.668;18.980;2022-09-17T07:45:55;4.32;;;3.58;;
55053;SDS011;40954;45.668;18.980;2022-09-17T07:48:21;5.75;;;3.90;;
55053;SDS011;40954;45.668;18.980;2022-09-17T07:50:48;5.97;;;4.20;;
55053;SDS011;40954;45.668;18.980;2022-09-17T07:53:14;7.88;;;3.90;;
55053;SDS011;40954;45.668;18.980;2022-09-17T07:55:40;2.97;;;2.70;;
55053;SDS011;40954;45.668;18.980;2022-09-17T07:58:06;4.85;;;3.90;;
55053;SDS011;40954;45.668;18.980;2022-09-17T08:00:32;6.70;;;2.60;;
55053;SDS011;40954;45.668;18.980;2022-09-17T08:02:58;7.13;;;3.83;;
55053;SDS011;40954;45.668;18.980;2022-09-17T08:05:25;6.25;;;4.32;;
55053;SDS011;40954;45.668;18.980;2022-09-17T08:07:52;5.82;;;3.05;;
55053;SDS011;40954;45.668;18.980;2022-09-17T08:10:19;4.97;;;4.45;;
55053;SDS011;40954;45.668;18.980;2022-09-17T08:12:49;6.88;;;4.47;;
55053;SDS011;40954;45.668;18.980;2022-09-17T08:15:16;4.43;;;3.65;;
55053;SDS011;40954;45.668;18.980;2022-09-17T08:17:43;3.90;;;3.60;;
55053;SDS011;40954;45.668;18.980;2022-09-17T08:20:10;3.40;;;3.13;;
55053;SDS011;40954;45.668;18.980;2022-09-17T08:22:36;6.40;;;4.40;;
55053;SDS011;40954;45.668;18.980;2022-09-17T08:25:03;6.38;;;4.38;;
55053;SDS011;40954;45.668;18.980;2022-09-17T08:27:29;3.83;;;3.47;;
55053;SDS011;40954;45.668;18.980;2022-09-17T08:29:55;3.78;;;3.47;;
55053;SDS011;40954;45.668;18.980;2022-09-17T08:32:22;3.92;;;3.58;;
55053;SDS011;40954;45.668;18.980;2022-09-17T08:34:48;4.32;;;3.45;;
55053;SDS011;40954;45.668;18.980;2022-09-17T08:37:14;3.63;;;3.20;;
55053;SDS011;40954;45.668;18.980;2022-09-17T08:39:40;3.40;;;3.10;;
55053;SDS011;40954;45.668;18.980;2022-09-17T08:44:51;3.30;;;3.08;;
55053;SDS011;40954;45.668;18.980;2022-09-17T08:47:25;6.47;;;3.65;;
55053;SDS011;40954;45.668;18.980;2022-09-17T08:49:53;5.05;;;2.83;;
55053;SDS011;40954;45.668;18.980;2022-09-17T09:00:10;5.95;;;4.85;;
55053;SDS011;40954;45.668;18.980;2022-09-17T09:05:23;6.28;;;5.00;;
55053;SDS011;40954;45.668;18.980;2022-09-17T09:07:52;7.30;;;4.32;;
55053;SDS011;40954;45.668;18.980;2022-09-17T09:12:50;4.47;;;3.55;;
55053;SDS011;40954;45.668;18.980;2022-09-17T09:15:35;4.95;;;4.28;;
55053;SDS011;40954;45.668;18.980;2022-09-17T09:18:06;8.40;;;5.70;;
55053;SDS011;40954;45.668;18.980;2022-09-17T09:23:16;9.02;;;7.05;;
55053;SDS011;40954;45.668;18.980;2022-09-17T09:25:51;7.20;;;4.45;;
55053;SDS011;40954;45.668;18.980;2022-09-17T09:36:01;6.10;;;5.00;;
55053;SDS011;40954;45.668;18.980;2022-09-17T09:38:29;7.38;;;5.13;;
55053;SDS011;40954;45.668;18.980;2022-09-17T09:41:01;6.18;;;5.43;;
55053;SDS011;40954;45.668;18.980;2022-09-17T09:51:23;6.05;;;4.47;;
55053;SDS011;40954;45.668;18.980;2022-09-17T09:53:58;5.32;;;3.75;;
55053;SDS011;40954;45.668;18.980;2022-09-17T09:56:37;5.75;;;5.28;;
55053;SDS011;40954;45.668;18.980;2022-09-17T09:59:10;5.70;;;4.18;;
55053;SDS011;40954;45.668;18.980;2022-09-17T10:01:37;5.93;;;4.68;;
55053;SDS011;40954;45.668;18.980;2022-09-17T10:04:14;6.38;;;3.92;;
55053;SDS011;40954;45.668;18.980;2022-09-17T10:06:40;6.18;;;5.00;;
55053;SDS011;40954;45.668;18.980;2022-09-17T10:11:32;5.20;;;4.60;;
55053;SDS011;40954;45.668;18.980;2022-09-17T10:16:43;6.97;;;4.20;;
55053;SDS011;40954;45.668;18.980;2022-09-17T10:19:13;5.32;;;4.32;;
55053;SDS011;40954;45.668;18.980;2022-09-17T10:21:43;7.50;;;4.32;;
55053;SDS011;40954;45.668;18.980;2022-09-17T10:24:28;6.25;;;4.00;;
55053;SDS011;40954;45.668;18.980;2022-09-17T10:29:56;6.10;;;4.72;;
55053;SDS011;40954;45.668;18.980;2022-09-17T10:32:25;4.80;;;4.20;;
55053;SDS011;40954;45.668;18.980;2022-09-17T10:39:58;5.13;;;3.72;;
55053;SDS011;40954;45.668;18.980;2022-09-17T10:42:24;6.20;;;3.70;;
55053;SDS011;40954;45.668;18.980;2022-09-17T10:44:51;3.60;;;3.30;;
55053;SDS011;40954;45.668;18.980;2022-09-17T10:47:20;4.63;;;3.67;;
55053;SDS011;40954;45.668;18.980;2022-09-17T10:49:58;6.45;;;4.53;;
55053;SDS011;40954;45.668;18.980;2022-09-17T10:52:26;5.85;;;4.10;;
55053;SDS011;40954;45.668;18.980;2022-09-17T11:00:17;5.40;;;4.18;;
55053;SDS011;40954;45.668;18.980;2022-09-17T11:13:00;8.60;;;4.88;;
55053;SDS011;40954;45.668;18.980;2022-09-17T11:15:48;7.78;;;5.05;;
55053;SDS011;40954;45.668;18.980;2022-09-17T11:19:02;5.50;;;3.97;;
55053;SDS011;40954;45.668;18.980;2022-09-17T11:36:28;9.85;;;5.75;;
55053;SDS011;40954;45.668;18.980;2022-09-17T11:38:57;6.82;;;5.10;;
55053;SDS011;40954;45.668;18.980;2022-09-17T11:41:30;8.93;;;4.75;;
55053;SDS011;40954;45.668;18.980;2022-09-17T11:44:07;8.30;;;5.20;;
55053;SDS011;40954;45.668;18.980;2022-09-17T11:46:42;7.93;;;4.90;;
55053;SDS011;40954;45.668;18.980;2022-09-17T11:49:56;6.13;;;5.53;;
55053;SDS011;40954;45.668;18.980;2022-09-17T11:51:58;8.98;;;5.63;;
55053;SDS011;40954;45.668;18.980;2022-09-17T11:54:31;10.50;;;5.65;;
55053;SDS011;40954;45.668;18.980;2022-09-17T11:59:48;7.70;;;5.03;;
55053;SDS011;40954;45.668;18.980;2022-09-17T12:02:38;8.05;;;5.20;;
55053;SDS011;40954;45.668;18.980;2022-09-17T12:05:04;5.93;;;5.35;;
55053;SDS011;40954;45.668;18.980;2022-09-17T12:12:30;10.25;;;5.97;;
55053;SDS011;40954;45.668;18.980;2022-09-17T12:14:58;10.38;;;6.22;;
55053;SDS011;40954;45.668;18.980;2022-09-17T12:17:32;6.38;;;5.35;;
55053;SDS011;40954;45.668;18.980;2022-09-17T12:20:04;9.27;;;6.72;;
55053;SDS011;40954;45.668;18.980;2022-09-17T12:22:33;8.43;;;6.97;;
55053;SDS011;40954;45.668;18.980;2022-09-17T12:25:00;8.32;;;6.20;;
55053;SDS011;40954;45.668;18.980;2022-09-17T12:35:01;5.80;;;5.25;;
55053;SDS011;40954;45.668;18.980;2022-09-17T12:42:52;7.40;;;6.70;;
55053;SDS011;40954;45.668;18.980;2022-09-17T12:53:14;13.30;;;6.40;;
55053;SDS011;40954;45.668;18.980;2022-09-17T13:03:29;7.57;;;6.28;;
55053;SDS011;40954;45.668;18.980;2022-09-17T13:11:13;8.90;;;5.75;;
55053;SDS011;40954;45.668;18.980;2022-09-17T13:16:32;4.95;;;4.55;;
55053;SDS011;40954;45.668;18.980;2022-09-17T13:21:42;4.43;;;4.03;;
55053;SDS011;40954;45.668;18.980;2022-09-17T13:24:19;7.18;;;4.80;;
55053;SDS011;40954;45.668;18.980;2022-09-17T13:26:46;5.50;;;4.60;;
55053;SDS011;40954;45.668;18.980;2022-09-17T13:29:55;5.07;;;4.63;;
55053;SDS011;40954;45.668;18.980;2022-09-17T13:31:59;7.35;;;4.60;;
55053;SDS011;40954;45.668;18.980;2022-09-17T13:34:26;6.30;;;4.35;;
55053;SDS011;40954;45.668;18.980;2022-09-17T13:36:54;6.03;;;3.72;;
55053;SDS011;40954;45.668;18.980;2022-09-17T13:42:13;5.80;;;4.32;;
55053;SDS011;40954;45.668;18.980;2022-09-17T13:44:41;5.55;;;4.38;;
55053;SDS011;40954;45.668;18.980;2022-09-17T13:49:35;11.80;;;4.95;;
55053;SDS011;40954;45.668;18.980;2022-09-17T13:52:08;7.10;;;4.68;;
55053;SDS011;40954;45.668;18.980;2022-09-17T13:54:35;5.18;;;4.55;;
55053;SDS011;40954;45.668;18.980;2022-09-17T13:57:09;9.88;;;4.82;;
55053;SDS011;40954;45.668;18.980;2022-09-17T13:59:36;4.70;;;4.00;;
55053;SDS011;40954;45.668;18.980;2022-09-17T14:17:57;5.35;;;4.55;;
55053;SDS011;40954;45.668;18.980;2022-09-17T14:20:23;6.55;;;4.80;;
55053;SDS011;40954;45.668;18.980;2022-09-17T14:22:56;7.55;;;4.70;;
55053;SDS011;40954;45.668;18.980;2022-09-17T14:25:57;8.52;;;4.47;;
55053;SDS011;40954;45.668;18.980;2022-09-17T14:28:27;4.55;;;3.95;;
55053;SDS011;40954;45.668;18.980;2022-09-17T14:30:55;7.10;;;3.72;;
55053;SDS011;40954;45.668;18.980;2022-09-17T14:33:24;5.43;;;4.55;;
55053;SDS011;40954;45.668;18.980;2022-09-17T14:36:10;4.97;;;4.15;;
55053;SDS011;40954;45.668;18.980;2022-09-17T14:38:42;5.25;;;3.58;;
55053;SDS011;40954;45.668;18.980;2022-09-17T14:46:27;5.33;;;4.40;;
55053;SDS011;40954;45.668;18.980;2022-09-17T14:48:55;6.93;;;5.13;;
55053;SDS011;40954;45.668;18.980;2022-09-17T14:51:40;7.03;;;4.43;;
55053;SDS011;40954;45.668;18.980;2022-09-17T14:54:08;6.63;;;4.20;;
55053;SDS011;40954;45.668;18.980;2022-09-17T14:56:39;4.95;;;4.00;;
55053;SDS011;40954;45.668;18.980;2022-09-17T14:59:08;7.60;;;4.53;;
55053;SDS011;40954;45.668;18.980;2022-09-17T15:04:14;9.00;;;3.67;;
55053;SDS011;40954;45.668;18.980;2022-09-17T15:06:44;4.25;;;3.60;;
55053;SDS011;40954;45.668;18.980;2022-09-17T15:09:23;6.70;;;4.30;;
55053;SDS011;40954;45.668;18.980;2022-09-17T15:11:57;6.93;;;3.83;;
55053;SDS011;40954;45.668;18.980;2022-09-17T15:14:27;7.40;;;3.80;;
55053;SDS011;40954;45.668;18.980;2022-09-17T15:16:55;11.60;;;4.80;;
55053;SDS011;40954;45.668;18.980;2022-09-17T15:19:26;4.63;;;3.95;;
55053;SDS011;40954;45.668;18.980;2022-09-17T15:21:55;9.57;;;4.13;;
55053;SDS011;40954;45.668;18.980;2022-09-17T15:26:49;2.95;;;2.67;;
55053;SDS011;40954;45.668;18.980;2022-09-17T15:29:15;3.42;;;3.08;;
55053;SDS011;40954;45.668;18.980;2022-09-17T15:31:43;3.53;;;2.30;;
55053;SDS011;40954;45.668;18.980;2022-09-17T15:34:10;5.32;;;3.78;;
55053;SDS011;40954;45.668;18.980;2022-09-17T15:36:36;11.27;;;4.13;;
55053;SDS011;40954;45.668;18.980;2022-09-17T15:39:27;4.72;;;3.30;;
55053;SDS011;40954;45.668;18.980;2022-09-17T15:41:55;8.60;;;3.10;;
55053;SDS011;40954;45.668;18.980;2022-09-17T15:46:47;10.93;;;4.38;;
55053;SDS011;40954;45.668;18.980;2022-09-17T15:49:25;7.50;;;3.17;;
55053;SDS011;40954;45.668;18.980;2022-09-17T15:51:52;4.05;;;3.33;;
55053;SDS011;40954;45.668;18.980;2022-09-17T15:54:28;7.47;;;4.55;;
55053;SDS011;40954;45.668;18.980;2022-09-17T15:56:55;3.65;;;3.22;;
55053;SDS011;40954;45.668;18.980;2022-09-17T15:59:28;5.43;;;3.50;;
55053;SDS011;40954;45.668;18.980;2022-09-17T16:01:56;9.63;;;3.33;;
55053;SDS011;40954;45.668;18.980;2022-09-17T16:06:50;3.80;;;3.38;;
55053;SDS011;40954;45.668;18.980;2022-09-17T16:12:02;7.22;;;4.32;;
55053;SDS011;40954;45.668;18.980;2022-09-17T16:14:28;4.43;;;3.97;;
55053;SDS011;40954;45.668;18.980;2022-09-17T16:16:54;4.80;;;4.40;;
55053;SDS011;40954;45.668;18.980;2022-09-17T16:19:20;5.97;;;4.32;;
55053;SDS011;40954;45.668;18.980;2022-09-17T16:21:47;4.82;;;4.20;;
55053;SDS011;40954;45.668;18.980;2022-09-17T16:24:13;3.80;;;3.35;;
55053;SDS011;40954;45.668;18.980;2022-09-17T16:26:39;3.97;;;3.67;;
55053;SDS011;40954;45.668;18.980;2022-09-17T16:29:06;6.10;;;4.25;;
55053;SDS011;40954;45.668;18.980;2022-09-17T16:31:33;8.88;;;4.00;;
55053;SDS011;40954;45.668;18.980;2022-09-17T16:33:59;6.18;;;4.07;;
55053;SDS011;40954;45.668;18.980;2022-09-17T16:36:25;3.70;;;3.40;;
55053;SDS011;40954;45.668;18.980;2022-09-17T16:38:54;7.00;;;4.45;;
55053;SDS011;40954;45.668;18.980;2022-09-17T16:41:21;5.28;;;4.15;;
55053;SDS011;40954;45.668;18.980;2022-09-17T16:43:47;5.13;;;3.60;;
55053;SDS011;40954;45.668;18.980;2022-09-17T16:46:13;10.00;;;4.40;;
55053;SDS011;40954;45.668;18.980;2022-09-17T16:48:39;4.07;;;3.67;;
55053;SDS011;40954;45.668;18.980;2022-09-17T16:51:06;4.18;;;3.83;;
55053;SDS011;40954;45.668;18.980;2022-09-17T16:53:32;11.73;;;6.82;;
55053;SDS011;40954;45.668;18.980;2022-09-17T16:55:58;5.15;;;4.28;;
55053;SDS011;40954;45.668;18.980;2022-09-17T16:58:24;4.82;;;3.35;;
55053;SDS011;40954;45.668;18.980;2022-09-17T17:00:51;3.08;;;2.75;;
55053;SDS011;40954;45.668;18.980;2022-09-17T17:03:17;8.60;;;5.18;;
55053;SDS011;40954;45.668;18.980;2022-09-17T17:05:43;5.68;;;4.30;;
55053;SDS011;40954;45.668;18.980;2022-09-17T17:08:09;4.93;;;3.40;;
55053;SDS011;40954;45.668;18.980;2022-09-17T17:10:38;3.80;;;3.40;;
55053;SDS011;40954;45.668;18.980;2022-09-17T17:13:04;3.08;;;2.60;;
55053;SDS011;40954;45.668;18.980;2022-09-17T17:15:30;4.10;;;2.50;;
55053;SDS011;40954;45.668;18.980;2022-09-17T17:17:56;4.50;;;2.78;;
55053;SDS011;40954;45.668;18.980;2022-09-17T17:20:23;3.50;;;2.70;;
55053;SDS011;40954;45.668;18.980;2022-09-17T17:22:49;2.38;;;1.92;;
55053;SDS011;40954;45.668;18.980;2022-09-17T17:25:16;4.97;;;2.70;;
55053;SDS011;40954;45.668;18.980;2022-09-17T17:27:42;4.53;;;2.50;;
55053;SDS011;40954;45.668;18.980;2022-09-17T17:30:09;1.90;;;1.80;;
55053;SDS011;40954;45.668;18.980;2022-09-17T17:32:40;4.10;;;2.60;;
55053;SDS011;40954;45.668;18.980;2022-09-17T17:35:07;2.53;;;2.20;;
55053;SDS011;40954;45.668;18.980;2022-09-17T17:37:33;9.50;;;5.25;;
55053;SDS011;40954;45.668;18.980;2022-09-17T17:39:59;2.50;;;1.83;;
55053;SDS011;40954;45.668;18.980;2022-09-17T17:42:29;3.05;;;2.35;;
55053;SDS011;40954;45.668;18.980;2022-09-17T17:45:01;4.10;;;2.90;;
55053;SDS011;40954;45.668;18.980;2022-09-17T17:47:27;1.88;;;1.77;;
55053;SDS011;40954;45.668;18.980;2022-09-17T17:49:53;2.55;;;2.35;;
55053;SDS011;40954;45.668;18.980;2022-09-17T17:52:19;4.68;;;3.97;;
55053;SDS011;40954;45.668;18.980;2022-09-17T17:54:45;6.60;;;4.35;;
55053;SDS011;40954;45.668;18.980;2022-09-17T17:57:11;5.82;;;2.20;;
55053;SDS011;40954;45.668;18.980;2022-09-17T17:59:37;3.42;;;1.90;;
55053;SDS011;40954;45.668;18.980;2022-09-17T18:02:03;4.22;;;1.88;;
55053;SDS011;40954;45.668;18.980;2022-09-17T18:04:30;3.20;;;2.10;;
55053;SDS011;40954;45.668;18.980;2022-09-17T18:06:56;4.57;;;2.85;;
55053;SDS011;40954;45.668;18.980;2022-09-17T18:09:22;4.18;;;2.95;;
55053;SDS011;40954;45.668;18.980;2022-09-17T18:11:48;4.55;;;2.00;;
55053;SDS011;40954;45.668;18.980;2022-09-17T18:14:14;2.05;;;1.70;;